createdAt,value
2019-03-30T00:01:38.984Z,22.33
2019-03-30T00:04:11.982Z,22.93
2019-03-30T00:06:40.823Z,22.53
2019-03-30T00:09:09.706Z,20.90
2019-03-30T00:11:40.285Z,23.63
2019-03-30T00:14:09.117Z,24.60
2019-03-30T00:16:37.930Z,25.10
2019-03-30T00:19:06.724Z,24.80
2019-03-30T00:21:35.624Z,24.20
2019-03-30T00:24:04.530Z,23.70
2019-03-30T00:26:33.429Z,25.80
2019-03-30T00:29:02.270Z,24.20
2019-03-30T00:31:31.109Z,24.47
2019-03-30T00:33:59.938Z,24.47
2019-03-30T00:36:28.817Z,26.60
2019-03-30T00:38:57.693Z,25.77
2019-03-30T00:41:27.143Z,26.43
2019-03-30T00:43:55.940Z,28.00
2019-03-30T00:46:24.758Z,27.17
2019-03-30T00:48:53.747Z,28.33
2019-03-30T00:51:22.581Z,29.37
2019-03-30T00:53:51.326Z,29.47
2019-03-30T00:56:20.218Z,28.80
2019-03-30T00:58:49.010Z,28.10
2019-03-30T01:01:18.469Z,25.90
2019-03-30T01:03:47.330Z,26.47
2019-03-30T01:06:16.150Z,26.60
2019-03-30T01:08:44.922Z,24.30
2019-03-30T01:11:13.716Z,24.13
2019-03-30T01:13:42.600Z,23.63
2019-03-30T01:16:11.456Z,23.63
2019-03-30T01:18:40.332Z,22.93
2019-03-30T01:21:09.573Z,21.77
2019-03-30T01:23:39.085Z,22.97
2019-03-30T01:26:08.023Z,22.83
2019-03-30T01:28:37.369Z,21.37
2019-03-30T01:31:06.299Z,22.30
2019-03-30T01:33:35.124Z,20.50
2019-03-30T01:36:03.962Z,21.90
2019-03-30T01:38:32.879Z,20.07
2019-03-30T01:41:01.626Z,20.37
2019-03-30T01:43:30.389Z,20.07
2019-03-30T01:45:59.308Z,20.60
2019-03-30T01:48:28.208Z,21.37
2019-03-30T01:50:57.007Z,22.70
2019-03-30T01:53:25.714Z,21.60
2019-03-30T01:55:54.571Z,21.57
2019-03-30T01:58:23.322Z,21.30
2019-03-30T02:00:52.173Z,21.10
2019-03-30T02:03:20.959Z,21.90
2019-03-30T02:05:49.658Z,21.57
2019-03-30T02:08:18.570Z,20.67
2019-03-30T02:10:47.683Z,20.50
2019-03-30T02:13:16.718Z,20.00
2019-03-30T02:15:45.549Z,20.30
2019-03-30T02:18:14.571Z,19.77
2019-03-30T02:20:45.409Z,22.10
2019-03-30T02:23:14.674Z,21.30
2019-03-30T02:25:45.530Z,20.37
2019-03-30T02:28:14.308Z,22.27
2019-03-30T02:30:43.217Z,22.63
2019-03-30T02:33:12.212Z,21.40
2019-03-30T02:35:40.984Z,20.60
2019-03-30T02:38:09.828Z,20.33
2019-03-30T02:40:38.664Z,20.03
2019-03-30T02:43:07.658Z,19.73
2019-03-30T02:45:36.450Z,20.30
2019-03-30T02:48:05.244Z,21.80
2019-03-30T02:50:48.281Z,19.60
2019-03-30T02:53:04.644Z,21.77
2019-03-30T02:55:34.786Z,18.90
2019-03-30T02:58:03.599Z,18.67
2019-03-30T03:00:32.423Z,21.00
2019-03-30T03:03:01.377Z,21.20
2019-03-30T03:05:30.378Z,19.10
2019-03-30T03:07:59.174Z,20.27
2019-03-30T03:10:28.014Z,19.13
2019-03-30T03:12:56.847Z,16.83
2019-03-30T03:15:25.670Z,18.60
2019-03-30T03:17:54.534Z,18.50
2019-03-30T03:20:23.465Z,17.80
2019-03-30T03:22:52.284Z,19.37
2019-03-30T03:25:21.172Z,17.37
2019-03-30T03:27:49.921Z,18.40
2019-03-30T03:30:19.104Z,17.33
2019-03-30T03:32:50.701Z,16.83
2019-03-30T03:35:19.474Z,16.03
2019-03-30T03:37:48.339Z,16.53
2019-03-30T03:40:17.134Z,15.63
2019-03-30T03:42:47.625Z,17.57
2019-03-30T03:45:16.514Z,16.30
2019-03-30T03:47:45.372Z,19.57
2019-03-30T03:50:17.018Z,16.60
2019-03-30T03:52:47.580Z,17.80
2019-03-30T03:55:16.313Z,16.77
2019-03-30T03:57:45.422Z,17.17
2019-03-30T04:00:14.388Z,16.67
2019-03-30T04:02:44.762Z,16.87
2019-03-30T04:05:13.610Z,17.33
2019-03-30T04:07:42.758Z,16.70
2019-03-30T04:10:11.862Z,17.73
2019-03-30T04:12:45.077Z,17.33
2019-03-30T04:15:16.762Z,17.10
2019-03-30T04:17:45.614Z,16.63
2019-03-30T04:20:17.317Z,15.63
2019-03-30T04:22:46.244Z,16.07
2019-03-30T04:25:16.192Z,15.87
2019-03-30T04:27:45.096Z,15.83
2019-03-30T04:30:14.079Z,15.23
2019-03-30T04:32:42.836Z,18.03
2019-03-30T04:35:11.679Z,16.50
2019-03-30T04:37:40.472Z,16.33
2019-03-30T04:40:09.417Z,15.73
2019-03-30T04:42:38.297Z,15.87
2019-03-30T04:45:09.292Z,17.33
2019-03-30T04:47:38.059Z,17.47
2019-03-30T04:50:07.676Z,16.23
2019-03-30T04:52:36.566Z,17.13
2019-03-30T04:55:06.909Z,17.00
2019-03-30T04:57:35.878Z,18.83
2019-03-30T05:00:07.227Z,16.70
2019-03-30T05:02:36.058Z,19.57
2019-03-30T05:05:06.139Z,19.57
2019-03-30T05:07:34.889Z,19.47
2019-03-30T05:10:05.520Z,19.60
2019-03-30T05:12:34.404Z,20.40
2019-03-30T05:15:03.708Z,19.57
2019-03-30T05:17:46.966Z,20.10
2019-03-30T05:20:05.073Z,18.50
2019-03-30T05:22:43.335Z,20.17
2019-03-30T05:25:16.052Z,20.33
2019-03-30T05:27:47.774Z,19.20
2019-03-30T05:30:18.087Z,20.90
2019-03-30T05:32:48.763Z,22.10
2019-03-30T05:35:17.499Z,20.50
2019-03-30T05:37:50.174Z,21.70
2019-03-30T05:40:19.016Z,20.03
2019-03-30T05:42:47.938Z,18.73
2019-03-30T05:45:16.723Z,17.20
2019-03-30T05:47:45.612Z,15.07
2019-03-30T05:50:15.997Z,15.37
2019-03-30T05:55:24.998Z,16.00
2019-03-30T05:57:53.833Z,14.20
2019-03-30T06:00:27.186Z,14.90
2019-03-30T06:02:57.119Z,15.53
2019-03-30T06:05:31.116Z,14.40
2019-03-30T06:08:09.096Z,13.60
2019-03-30T06:10:45.991Z,12.83
2019-03-30T06:13:18.404Z,12.33
2019-03-30T06:15:47.791Z,12.30
2019-03-30T06:18:18.177Z,11.93
2019-03-30T06:20:46.906Z,11.40
2019-03-30T06:23:15.756Z,11.33
2019-03-30T06:25:46.873Z,11.30
2019-03-30T06:28:18.796Z,10.63
2019-03-30T06:30:50.490Z,9.30
2019-03-30T06:33:19.953Z,10.40
2019-03-30T06:35:48.914Z,11.67
2019-03-30T06:38:17.914Z,10.60
2019-03-30T06:40:48.163Z,11.30
2019-03-30T06:43:16.918Z,10.97
2019-03-30T06:45:48.426Z,10.57
2019-03-30T06:48:18.848Z,10.30
2019-03-30T06:50:50.468Z,10.60
2019-03-30T06:53:19.318Z,10.33
2019-03-30T06:55:48.054Z,10.30
2019-03-30T06:58:16.971Z,10.30
2019-03-30T07:00:47.967Z,9.47
2019-03-30T07:03:16.851Z,10.47
2019-03-30T07:05:55.039Z,9.87
2019-03-30T07:08:31.914Z,10.33
2019-03-30T07:11:04.095Z,10.33
2019-03-30T07:14:08.004Z,10.50
2019-03-30T07:16:38.445Z,10.37
2019-03-30T07:19:07.238Z,10.17
2019-03-30T07:21:43.147Z,11.23
2019-03-30T07:24:16.306Z,9.60
2019-03-30T07:26:46.769Z,9.73
2019-03-30T07:29:18.455Z,9.80
2019-03-30T07:31:47.254Z,10.20
2019-03-30T07:34:17.428Z,11.20
2019-03-30T07:36:56.286Z,10.90
2019-03-30T07:39:51.836Z,10.03
2019-03-30T07:42:18.024Z,9.40
2019-03-30T07:44:46.835Z,9.53
2019-03-30T07:47:16.952Z,10.07
2019-03-30T07:49:46.966Z,9.70
2019-03-30T07:52:15.843Z,10.20
2019-03-30T07:54:44.655Z,10.27
2019-03-30T07:57:17.275Z,11.13
2019-03-30T07:59:45.486Z,10.83
2019-03-30T08:02:14.405Z,10.57
2019-03-30T08:04:43.295Z,10.70
2019-03-30T08:07:14.630Z,9.70
2019-03-30T08:09:43.500Z,10.10
2019-03-30T08:12:14.487Z,10.20
2019-03-30T08:14:46.131Z,12.00
2019-03-30T08:17:16.225Z,10.43
2019-03-30T08:19:44.902Z,10.40
2019-03-30T08:22:13.692Z,10.00
2019-03-30T08:24:44.015Z,11.30
2019-03-30T08:27:12.904Z,10.77
2019-03-30T08:29:42.090Z,10.10
2019-03-30T08:32:11.029Z,10.23
2019-03-30T08:34:39.873Z,10.13
2019-03-30T08:37:08.695Z,11.90
2019-03-30T08:39:38.103Z,12.00
2019-03-30T08:42:07.094Z,9.80
2019-03-30T08:44:36.051Z,11.93
2019-03-30T08:47:04.966Z,12.70
2019-03-30T08:49:35.128Z,11.97
2019-03-30T08:52:03.912Z,12.10
2019-03-30T08:54:32.669Z,12.07
2019-03-30T08:57:01.547Z,12.30
2019-03-30T08:59:33.260Z,10.70
2019-03-30T09:02:02.043Z,10.77
2019-03-30T09:04:30.931Z,10.00
2019-03-30T09:06:59.753Z,9.57
2019-03-30T09:09:29.526Z,9.83
2019-03-30T09:11:58.436Z,9.37
2019-03-30T09:14:27.405Z,10.50
2019-03-30T09:16:56.474Z,9.37
2019-03-30T09:19:25.351Z,9.93
2019-03-30T09:21:54.986Z,10.60
2019-03-30T09:24:26.803Z,9.60
2019-03-30T09:26:57.282Z,10.33
2019-03-30T09:29:26.120Z,10.90
2019-03-30T09:31:55.315Z,11.57
2019-03-30T09:34:25.824Z,9.80
2019-03-30T09:36:54.905Z,10.23
2019-03-30T09:39:24.208Z,10.30
2019-03-30T09:41:53.838Z,11.27
2019-03-30T09:44:22.778Z,10.57
2019-03-30T09:46:52.001Z,10.30
2019-03-30T09:49:20.831Z,12.70
2019-03-30T09:51:49.595Z,10.93
2019-03-30T09:54:24.085Z,9.70
2019-03-30T09:56:49.301Z,10.30
2019-03-30T09:59:18.245Z,9.60
2019-03-30T10:01:47.190Z,9.00
2019-03-30T10:04:16.306Z,9.50
2019-03-30T10:06:45.774Z,9.47
2019-03-30T10:09:14.712Z,8.03
2019-03-30T10:11:43.643Z,8.73
2019-03-30T10:14:13.823Z,8.60
2019-03-30T10:16:42.799Z,8.47
2019-03-30T10:19:11.592Z,9.40
2019-03-30T10:21:40.379Z,9.70
2019-03-30T10:24:10.584Z,8.87
2019-03-30T10:26:42.472Z,9.60
2019-03-30T10:29:12.759Z,9.43
2019-03-30T10:31:41.574Z,9.67
2019-03-30T10:34:14.322Z,8.30
2019-03-30T10:36:43.137Z,8.93
2019-03-30T10:39:12.969Z,7.67
2019-03-30T10:41:45.247Z,5.60
2019-03-30T10:44:17.024Z,6.07
2019-03-30T10:46:45.934Z,5.97
2019-03-30T10:49:15.000Z,6.37
2019-03-30T10:51:45.961Z,6.10
2019-03-30T10:54:15.400Z,6.70
2019-03-30T10:56:44.294Z,6.13
2019-03-30T10:59:14.642Z,5.93
2019-03-30T11:01:43.608Z,6.20
2019-03-30T11:04:13.834Z,6.00
2019-03-30T11:06:46.421Z,5.93
2019-03-30T11:09:19.072Z,6.57
2019-03-30T11:11:48.084Z,6.37
2019-03-30T11:14:16.982Z,6.47
2019-03-30T11:16:46.471Z,6.37
2019-03-30T11:19:17.546Z,7.20
2019-03-30T11:21:50.239Z,5.90
2019-03-30T11:24:19.144Z,7.03
2019-03-30T11:26:48.583Z,6.27
2019-03-30T11:29:22.022Z,7.30
2019-03-30T11:31:50.953Z,7.97
2019-03-30T11:34:21.345Z,7.17
2019-03-30T11:36:51.628Z,8.27
2019-03-30T11:39:21.670Z,8.00
2019-03-30T11:41:52.067Z,8.63
2019-03-30T11:44:22.336Z,8.00
2019-03-30T11:46:51.169Z,7.37
2019-03-30T11:49:29.492Z,8.63
2019-03-30T11:51:59.896Z,8.90
2019-03-30T11:54:28.880Z,9.00
2019-03-30T11:56:57.753Z,8.63
2019-03-30T11:59:29.042Z,8.90
2019-03-30T12:02:00.891Z,9.33
2019-03-30T12:04:32.860Z,8.20
2019-03-30T12:07:05.352Z,7.83
2019-03-30T12:09:36.947Z,8.47
2019-03-30T12:12:05.999Z,7.57
2019-03-30T12:14:34.865Z,7.40
2019-03-30T12:17:03.545Z,8.17
2019-03-30T12:19:32.282Z,6.47
2019-03-30T12:22:02.423Z,7.93
2019-03-30T12:24:31.696Z,8.30
2019-03-30T12:27:00.457Z,8.27
2019-03-30T12:29:44.528Z,7.97
2019-03-30T12:32:16.551Z,8.23
2019-03-30T12:34:45.426Z,9.90
2019-03-30T12:37:15.716Z,9.03
2019-03-30T12:39:44.561Z,8.40
2019-03-30T12:42:27.247Z,8.97
2019-03-30T12:44:55.191Z,8.03
2019-03-30T12:47:24.197Z,7.73
2019-03-30T12:49:58.647Z,8.53
2019-03-30T12:52:28.656Z,8.33
2019-03-30T12:55:00.396Z,8.97
2019-03-30T12:57:29.642Z,8.67
2019-03-30T13:00:00.904Z,9.10
2019-03-30T13:02:31.406Z,8.27
2019-03-30T13:05:00.527Z,7.93
2019-03-30T13:07:29.931Z,7.90
2019-03-30T13:10:00.629Z,8.10
2019-03-30T13:12:30.156Z,7.40
2019-03-30T13:14:59.141Z,8.20
2019-03-30T13:17:31.186Z,8.40
2019-03-30T13:20:00.354Z,7.87
2019-03-30T13:22:29.516Z,7.70
2019-03-30T13:24:58.308Z,7.87
2019-03-30T13:27:27.179Z,8.80
2019-03-30T13:29:56.268Z,8.70
2019-03-30T13:32:25.197Z,8.20
2019-03-30T13:34:54.447Z,8.90
2019-03-30T13:37:23.341Z,7.93
2019-03-30T13:39:52.122Z,8.17
2019-03-30T13:42:22.457Z,8.70
2019-03-30T13:44:51.851Z,8.40
2019-03-30T13:47:21.840Z,8.50
2019-03-30T13:49:50.653Z,7.83
2019-03-30T13:52:19.474Z,8.97
2019-03-30T13:54:48.778Z,9.00
2019-03-30T13:57:17.923Z,8.93
2019-03-30T13:59:48.401Z,8.83
2019-03-30T14:02:17.290Z,9.60
2019-03-30T14:04:52.171Z,10.77
2019-03-30T14:07:21.438Z,8.80
2019-03-30T14:09:51.521Z,10.20
2019-03-30T14:12:20.854Z,9.10
2019-03-30T14:14:55.680Z,9.97
2019-03-30T14:17:24.717Z,9.53
2019-03-30T14:19:54.385Z,8.83
2019-03-30T14:22:23.209Z,9.37
2019-03-30T14:24:52.208Z,8.73
2019-03-30T14:27:21.091Z,8.90
2019-03-30T14:29:49.929Z,8.10
2019-03-30T14:32:29.534Z,8.53
2019-03-30T14:34:59.841Z,7.00
2019-03-30T14:37:28.652Z,8.47
2019-03-30T14:40:02.283Z,8.20
2019-03-30T14:42:31.699Z,9.60
2019-03-30T14:45:00.596Z,8.77
2019-03-30T14:47:31.060Z,8.33
2019-03-30T14:49:59.996Z,8.70
2019-03-30T14:52:30.423Z,9.43
2019-03-30T14:55:08.282Z,7.90
2019-03-30T14:57:37.226Z,7.77
2019-03-30T15:00:10.544Z,8.67
2019-03-30T15:02:39.490Z,8.40
2019-03-30T15:05:12.443Z,8.07
2019-03-30T15:07:41.416Z,8.47
2019-03-30T15:10:12.364Z,8.00
2019-03-30T15:12:41.381Z,8.53
2019-03-30T15:15:12.151Z,8.50
2019-03-30T15:17:41.565Z,8.37
2019-03-30T15:20:13.372Z,9.67
2019-03-30T15:22:43.106Z,11.70
2019-03-30T15:25:14.098Z,11.50
2019-03-30T15:27:43.774Z,10.20
2019-03-30T15:30:13.170Z,10.77
2019-03-30T15:32:43.526Z,11.37
2019-03-30T15:35:12.728Z,9.83
2019-03-30T15:37:41.559Z,11.33
2019-03-30T15:40:11.882Z,11.87
2019-03-30T15:42:40.872Z,11.47
2019-03-30T15:45:13.833Z,12.67
2019-03-30T15:47:44.768Z,13.10
2019-03-30T15:50:15.434Z,11.80
2019-03-30T15:52:44.291Z,11.43
2019-03-30T15:55:14.864Z,12.17
2019-03-30T15:57:43.759Z,11.70
2019-03-30T16:00:15.375Z,10.93
2019-03-30T16:02:44.311Z,11.30
2019-03-30T16:05:15.821Z,11.10
2019-03-30T16:07:44.976Z,11.67
2019-03-30T16:10:16.350Z,13.60
2019-03-30T16:12:45.200Z,10.80
2019-03-30T16:15:15.132Z,11.67
2019-03-30T16:17:44.040Z,12.10
2019-03-30T16:20:14.560Z,12.13
2019-03-30T16:22:46.402Z,11.60
2019-03-30T16:25:16.678Z,11.57
2019-03-30T16:27:46.206Z,11.30
2019-03-30T16:30:17.106Z,12.80
2019-03-30T16:32:46.038Z,11.73
2019-03-30T16:35:17.492Z,11.57
2019-03-30T16:37:47.916Z,11.47
2019-03-30T16:40:18.310Z,12.50
2019-03-30T16:42:48.739Z,12.73
2019-03-30T16:45:17.822Z,12.97
2019-03-30T16:47:46.752Z,11.77
2019-03-30T16:50:16.824Z,10.93
2019-03-30T16:52:45.675Z,11.57
2019-03-30T16:55:14.563Z,10.60
2019-03-30T16:57:44.357Z,11.10
2019-03-30T17:00:14.538Z,11.90
2019-03-30T17:02:46.154Z,11.37
2019-03-30T17:05:17.591Z,13.40
2019-03-30T17:07:49.413Z,12.80
2019-03-30T17:10:18.840Z,13.10
2019-03-30T17:12:49.161Z,13.27
2019-03-30T17:15:20.862Z,14.67
2019-03-30T17:17:49.842Z,12.90
2019-03-30T17:20:18.713Z,13.00
2019-03-30T17:22:49.332Z,13.23
2019-03-30T17:25:20.117Z,12.83
2019-03-30T17:27:58.252Z,12.30
2019-03-30T17:30:19.604Z,11.97
2019-03-30T17:32:48.500Z,12.70
2019-03-30T17:35:17.405Z,14.10
2019-03-30T17:37:47.455Z,12.00
2019-03-30T17:40:16.285Z,13.37
2019-03-30T17:42:46.043Z,13.17
2019-03-30T17:45:15.113Z,13.90
2019-03-30T17:47:44.777Z,13.40
2019-03-30T17:50:14.086Z,15.20
2019-03-30T17:52:45.350Z,15.57
2019-03-30T17:55:14.335Z,16.83
2019-03-30T17:57:44.607Z,15.70
2019-03-30T18:00:16.538Z,16.60
2019-03-30T18:02:47.660Z,17.13
2019-03-30T18:05:18.084Z,17.80
2019-03-30T18:07:51.336Z,15.97
2019-03-30T18:10:20.207Z,16.57
2019-03-30T18:12:49.117Z,17.57
2019-03-30T18:15:18.156Z,15.70
2019-03-30T18:17:47.009Z,17.70
2019-03-30T18:20:15.938Z,18.00
2019-03-30T18:22:48.616Z,16.20
2019-03-30T18:25:17.521Z,17.63
2019-03-30T18:27:46.422Z,18.37
2019-03-30T18:30:15.759Z,18.23
2019-03-30T18:32:46.026Z,19.37
2019-03-30T18:35:16.589Z,20.97
2019-03-30T18:37:47.033Z,20.33
2019-03-30T18:40:18.597Z,20.13
2019-03-30T18:42:47.451Z,23.20
2019-03-30T18:45:19.165Z,25.03
2019-03-30T18:47:48.944Z,26.13
2019-03-30T18:50:17.905Z,25.20
2019-03-30T18:52:46.898Z,24.40
2019-03-30T18:55:18.624Z,25.87
2019-03-30T18:57:47.429Z,27.00
2019-03-30T19:00:19.195Z,26.60
2019-03-30T19:02:49.366Z,25.27
2019-03-30T19:05:18.287Z,26.10
2019-03-30T19:07:47.315Z,26.27
2019-03-30T19:10:17.750Z,26.77
2019-03-30T19:12:47.219Z,26.27
2019-03-30T19:15:18.239Z,28.27
2019-03-30T19:17:48.562Z,25.83
2019-03-30T19:20:17.684Z,26.03
2019-03-30T19:22:55.523Z,26.67
2019-03-30T19:25:24.432Z,24.83
2019-03-30T19:27:56.737Z,25.97
2019-03-30T19:30:27.525Z,26.20
2019-03-30T19:32:56.514Z,25.97
2019-03-30T19:35:27.052Z,25.60
2019-03-30T19:38:00.222Z,24.90
2019-03-30T19:40:29.232Z,29.20
2019-03-30T19:42:58.071Z,28.80
2019-03-30T19:45:26.941Z,30.10
2019-03-30T19:47:58.986Z,30.40
2019-03-30T19:50:28.499Z,29.53
2019-03-30T19:52:57.345Z,31.80
2019-03-30T19:55:30.656Z,30.70
2019-03-30T19:57:58.342Z,29.93
2019-03-30T20:00:29.236Z,33.97
2019-03-30T20:02:58.123Z,40.27
2019-03-30T20:05:29.079Z,32.90
2019-03-30T20:08:11.568Z,33.90
2019-03-30T20:10:28.691Z,33.10
2019-03-30T20:13:02.219Z,29.77
2019-03-30T20:15:31.703Z,29.50
2019-03-30T20:18:01.830Z,31.07
2019-03-30T20:20:32.111Z,27.27
2019-03-30T20:23:02.144Z,30.20
2019-03-30T20:25:32.695Z,31.87
2019-03-30T20:28:01.650Z,29.33
2019-03-30T20:30:35.089Z,30.43
2019-03-30T20:33:05.288Z,32.37
2019-03-30T20:35:34.656Z,32.20
2019-03-30T20:38:04.387Z,33.97
2019-03-30T20:40:34.764Z,34.13
2019-03-30T20:43:08.187Z,31.83
2019-03-30T20:45:39.946Z,29.80
2019-03-30T20:48:10.319Z,29.27
2019-03-30T20:53:29.981Z,31.33
2019-03-30T20:56:02.761Z,30.67
2019-03-30T20:58:32.374Z,30.53
2019-03-30T21:01:06.654Z,31.33
2019-03-30T21:03:37.051Z,33.10
2019-03-30T21:06:09.001Z,30.27
2019-03-30T21:08:42.673Z,27.20
2019-03-30T21:11:12.960Z,26.65
2019-03-30T21:13:46.384Z,24.30
2019-03-30T21:16:16.586Z,27.50
2019-03-30T21:19:00.143Z,28.57
2019-03-30T21:21:30.222Z,28.43
2019-03-30T21:24:00.727Z,28.10
2019-03-30T21:26:30.408Z,26.97
2019-03-30T21:29:00.583Z,27.13
2019-03-30T21:31:29.541Z,29.20
2019-03-30T21:33:58.444Z,30.80
2019-03-30T21:36:29.569Z,29.50
2019-03-30T21:38:59.847Z,29.10
2019-03-30T21:41:28.720Z,29.80
2019-03-30T21:43:59.248Z,28.93
2019-03-30T21:46:34.228Z,31.23
2019-03-30T21:49:03.074Z,28.80
2019-03-30T21:51:32.045Z,29.00
2019-03-30T21:54:03.767Z,28.37
2019-03-30T21:56:33.269Z,29.20
2019-03-30T21:59:02.227Z,29.00
2019-03-30T22:01:31.052Z,31.97
2019-03-30T22:04:03.002Z,29.50
2019-03-30T22:06:31.873Z,27.90
2019-03-30T22:09:01.065Z,28.13
2019-03-30T22:11:29.958Z,29.90
2019-03-30T22:13:58.915Z,31.13
2019-03-30T22:16:27.837Z,29.63
2019-03-30T22:18:59.073Z,30.70
2019-03-30T22:21:29.213Z,29.80
2019-03-30T22:24:00.624Z,31.77
2019-03-30T22:26:32.923Z,30.00
2019-03-30T22:29:03.169Z,29.50
2019-03-30T22:31:34.032Z,29.00
2019-03-30T22:34:02.918Z,31.20
2019-03-30T22:36:31.790Z,30.53
2019-03-30T22:39:00.708Z,33.97
2019-03-30T22:41:32.362Z,31.87
2019-03-30T22:44:01.351Z,33.77
2019-03-30T22:49:21.419Z,33.40
2019-03-30T22:51:54.496Z,33.43
2019-03-30T22:54:23.398Z,30.83
2019-03-30T22:56:55.674Z,32.60
2019-03-30T22:59:25.276Z,33.57
2019-03-30T23:01:56.729Z,32.50
2019-03-30T23:04:26.962Z,31.50
2019-03-30T23:06:56.046Z,34.23
2019-03-30T23:09:24.902Z,34.57
2019-03-30T23:11:54.274Z,33.50
2019-03-30T23:14:23.306Z,37.00
2019-03-30T23:16:52.098Z,39.60
2019-03-30T23:19:21.900Z,36.60
2019-03-30T23:21:50.750Z,32.23
2019-03-30T23:24:19.780Z,33.63
2019-03-30T23:26:48.608Z,33.80
2019-03-30T23:29:21.454Z,35.57
2019-03-30T23:31:50.329Z,34.73
2019-03-30T23:34:19.208Z,42.30
2019-03-30T23:36:50.191Z,44.67
2019-03-30T23:39:24.820Z,43.13
2019-03-30T23:41:57.354Z,42.80
2019-03-30T23:44:26.247Z,38.33
2019-03-30T23:46:56.488Z,35.67
2019-03-30T23:49:25.497Z,35.40
2019-03-30T23:51:57.381Z,36.70
2019-03-30T23:54:26.181Z,33.70
2019-03-30T23:56:55.033Z,32.57
2019-03-30T23:59:23.937Z,37.37
